sensor_id;sensor_type;location;lat;lon;timestamp;temperature;humidity
78779;DHT22;68121;52.404;5.318;2023-04-01T00:01:41;10.60;77.50
78779;DHT22;68121;52.404;5.318;2023-04-01T00:04:07;10.60;77.40
78779;DHT22;68121;52.404;5.318;2023-04-01T00:06:34;10.60;77.40
78779;DHT22;68121;52.404;5.318;2023-04-01T00:09:00;10.60;77.50
78779;DHT22;68121;52.404;5.318;2023-04-01T00:11:26;10.60;77.40
78779;DHT22;68121;52.404;5.318;2023-04-01T00:13:56;10.60;77.40
78779;DHT22;68121;52.404;5.318;2023-04-01T00:16:22;10.60;77.30
78779;DHT22;68121;52.404;5.318;2023-04-01T00:18:49;10.60;77.30
78779;DHT22;68121;52.404;5.318;2023-04-01T00:21:15;10.50;77.30
78779;DHT22;68121;52.404;5.318;2023-04-01T00:23:42;10.50;77.20
78779;DHT22;68121;52.404;5.318;2023-04-01T00:26:08;10.50;77.20
78779;DHT22;68121;52.404;5.318;2023-04-01T00:28:34;10.50;77.20
78779;DHT22;68121;52.404;5.318;2023-04-01T00:31:05;10.50;77.20
78779;DHT22;68121;52.404;5.318;2023-04-01T00:33:32;10.40;77.20
78779;DHT22;68121;52.404;5.318;2023-04-01T00:36:07;10.50;77.20
78779;DHT22;68121;52.404;5.318;2023-04-01T00:38:34;10.40;77.20
78779;DHT22;68121;52.404;5.318;2023-04-01T00:41:00;10.40;77.10
78779;DHT22;68121;52.404;5.318;2023-04-01T00:43:26;10.40;77.20
78779;DHT22;68121;52.404;5.318;2023-04-01T00:45:52;10.40;77.10
78779;DHT22;68121;52.404;5.318;2023-04-01T00:48:22;10.40;77.10
78779;DHT22;68121;52.404;5.318;2023-04-01T00:50:53;10.40;77.10
78779;DHT22;68121;52.404;5.318;2023-04-01T00:53:21;10.40;77.10
78779;DHT22;68121;52.404;5.318;2023-04-01T00:56:00;10.40;77.10
78779;DHT22;68121;52.404;5.318;2023-04-01T00:58:29;10.40;77.20
78779;DHT22;68121;52.404;5.318;2023-04-01T01:00:58;10.40;77.10
78779;DHT22;68121;52.404;5.318;2023-04-01T01:03:25;10.40;77.10
78779;DHT22;68121;52.404;5.318;2023-04-01T01:08:43;10.40;77.10
78779;DHT22;68121;52.404;5.318;2023-04-01T01:11:11;10.30;77.10
78779;DHT22;68121;52.404;5.318;2023-04-01T01:13:51;10.30;77.10
78779;DHT22;68121;52.404;5.318;2023-04-01T01:16:28;10.30;77.10
78779;DHT22;68121;52.404;5.318;2023-04-01T01:19:42;10.20;77.20
78779;DHT22;68121;52.404;5.318;2023-04-01T01:22:10;10.20;77.20
78779;DHT22;68121;52.404;5.318;2023-04-01T01:27:34;10.20;77.10
78779;DHT22;68121;52.404;5.318;2023-04-01T01:37:56;10.20;77.10
78779;DHT22;68121;52.404;5.318;2023-04-01T01:40:26;10.20;77.10
78779;DHT22;68121;52.404;5.318;2023-04-01T01:42:56;10.20;77.10
78779;DHT22;68121;52.404;5.318;2023-04-01T01:45:26;10.20;77.10
78779;DHT22;68121;52.404;5.318;2023-04-01T01:47:53;10.20;77.10
78779;DHT22;68121;52.404;5.318;2023-04-01T01:50:21;10.20;77.10
78779;DHT22;68121;52.404;5.318;2023-04-01T01:52:48;10.20;77.10
78779;DHT22;68121;52.404;5.318;2023-04-01T01:55:30;10.20;77.20
78779;DHT22;68121;52.404;5.318;2023-04-01T01:58:00;10.20;77.20
78779;DHT22;68121;52.404;5.318;2023-04-01T02:00:28;10.20;77.10
78779;DHT22;68121;52.404;5.318;2023-04-01T02:02:55;10.20;77.10
78779;DHT22;68121;52.404;5.318;2023-04-01T02:05:24;10.20;77.10
78779;DHT22;68121;52.404;5.318;2023-04-01T02:08:08;10.30;77.10
78779;DHT22;68121;52.404;5.318;2023-04-01T02:10:37;10.30;77.10
78779;DHT22;68121;52.404;5.318;2023-04-01T02:13:16;10.30;77.00
78779;DHT22;68121;52.404;5.318;2023-04-01T02:15:46;10.20;77.00
78779;DHT22;68121;52.404;5.318;2023-04-01T02:18:15;10.30;77.10
78779;DHT22;68121;52.404;5.318;2023-04-01T02:20:42;10.20;77.10
78779;DHT22;68121;52.404;5.318;2023-04-01T02:23:10;10.20;77.10
78779;DHT22;68121;52.404;5.318;2023-04-01T02:25:37;10.30;77.10
78779;DHT22;68121;52.404;5.318;2023-04-01T02:28:06;10.20;77.10
78779;DHT22;68121;52.404;5.318;2023-04-01T02:30:35;10.30;77.00
78779;DHT22;68121;52.404;5.318;2023-04-01T02:33:03;10.30;77.10
78779;DHT22;68121;52.404;5.318;2023-04-01T02:35:29;10.30;77.10
78779;DHT22;68121;52.404;5.318;2023-04-01T02:37:56;10.30;77.10
78779;DHT22;68121;52.404;5.318;2023-04-01T02:40:22;10.30;77.20
78779;DHT22;68121;52.404;5.318;2023-04-01T02:42:48;10.30;77.20
78779;DHT22;68121;52.404;5.318;2023-04-01T02:45:15;10.30;77.10
78779;DHT22;68121;52.404;5.318;2023-04-01T02:47:41;10.30;77.20
78779;DHT22;68121;52.404;5.318;2023-04-01T02:50:07;10.30;77.10
78779;DHT22;68121;52.404;5.318;2023-04-01T02:52:34;10.30;77.10
78779;DHT22;68121;52.404;5.318;2023-04-01T02:55:00;10.40;77.10
78779;DHT22;68121;52.404;5.318;2023-04-01T02:57:26;10.40;77.10
78779;DHT22;68121;52.404;5.318;2023-04-01T02:59:52;10.40;77.10
78779;DHT22;68121;52.404;5.318;2023-04-01T03:02:18;10.40;77.00
78779;DHT22;68121;52.404;5.318;2023-04-01T03:04:44;10.40;77.00
78779;DHT22;68121;52.404;5.318;2023-04-01T03:07:11;10.40;77.00
78779;DHT22;68121;52.404;5.318;2023-04-01T03:09:38;10.40;77.00
78779;DHT22;68121;52.404;5.318;2023-04-01T03:12:04;10.40;77.00
78779;DHT22;68121;52.404;5.318;2023-04-01T03:14:30;10.40;76.90
78779;DHT22;68121;52.404;5.318;2023-04-01T03:16:56;10.40;76.90
78779;DHT22;68121;52.404;5.318;2023-04-01T03:19:22;10.30;76.80
78779;DHT22;68121;52.404;5.318;2023-04-01T03:21:49;10.30;76.80
78779;DHT22;68121;52.404;5.318;2023-04-01T03:24:15;10.30;76.80
78779;DHT22;68121;52.404;5.318;2023-04-01T03:26:41;10.30;76.90
78779;DHT22;68121;52.404;5.318;2023-04-01T03:29:07;10.30;76.80
78779;DHT22;68121;52.404;5.318;2023-04-01T03:31:33;10.20;76.90
78779;DHT22;68121;52.404;5.318;2023-04-01T03:34:00;10.20;76.90
78779;DHT22;68121;52.404;5.318;2023-04-01T03:36:26;10.20;76.90
78779;DHT22;68121;52.404;5.318;2023-04-01T03:38:52;10.20;77.00
78779;DHT22;68121;52.404;5.318;2023-04-01T03:41:18;10.20;77.00
78779;DHT22;68121;52.404;5.318;2023-04-01T03:43:44;10.20;77.00
78779;DHT22;68121;52.404;5.318;2023-04-01T03:46:11;10.20;77.00
78779;DHT22;68121;52.404;5.318;2023-04-01T03:48:37;10.20;77.00
78779;DHT22;68121;52.404;5.318;2023-04-01T03:51:07;10.20;77.00
78779;DHT22;68121;52.404;5.318;2023-04-01T03:53:33;10.20;77.00
78779;DHT22;68121;52.404;5.318;2023-04-01T03:56:04;10.20;77.10
78779;DHT22;68121;52.404;5.318;2023-04-01T03:58:30;10.10;77.10
78779;DHT22;68121;52.404;5.318;2023-04-01T04:00:56;10.10;77.10
78779;DHT22;68121;52.404;5.318;2023-04-01T04:03:22;10.10;77.20
78779;DHT22;68121;52.404;5.318;2023-04-01T04:05:49;10.20;77.20
78779;DHT22;68121;52.404;5.318;2023-04-01T04:08:16;10.10;77.10
78779;DHT22;68121;52.404;5.318;2023-04-01T04:10:42;10.10;77.20
78779;DHT22;68121;52.404;5.318;2023-04-01T04:13:09;10.10;77.20
78779;DHT22;68121;52.404;5.318;2023-04-01T04:15:35;10.10;77.20
78779;DHT22;68121;52.404;5.318;2023-04-01T04:18:01;10.10;77.20
78779;DHT22;68121;52.404;5.318;2023-04-01T04:20:27;10.10;77.30
78779;DHT22;68121;52.404;5.318;2023-04-01T04:22:53;10.10;77.40
78779;DHT22;68121;52.404;5.318;2023-04-01T04:25:19;10.10;77.40
78779;DHT22;68121;52.404;5.318;2023-04-01T04:27:45;10.10;77.50
78779;DHT22;68121;52.404;5.318;2023-04-01T04:30:11;10.10;77.50
78779;DHT22;68121;52.404;5.318;2023-04-01T04:32:37;10.10;77.50
78779;DHT22;68121;52.404;5.318;2023-04-01T04:35:04;10.10;77.60
78779;DHT22;68121;52.404;5.318;2023-04-01T04:37:32;10.00;77.60
78779;DHT22;68121;52.404;5.318;2023-04-01T04:39:58;10.00;77.70
78779;DHT22;68121;52.404;5.318;2023-04-01T04:42:24;10.10;77.70
78779;DHT22;68121;52.404;5.318;2023-04-01T04:44:50;10.10;77.70
78779;DHT22;68121;52.404;5.318;2023-04-01T04:47:16;10.00;77.70
78779;DHT22;68121;52.404;5.318;2023-04-01T04:49:42;10.00;77.70
78779;DHT22;68121;52.404;5.318;2023-04-01T04:52:08;10.00;77.80
78779;DHT22;68121;52.404;5.318;2023-04-01T04:54:34;10.00;77.80
78779;DHT22;68121;52.404;5.318;2023-04-01T04:57:00;10.00;77.80
78779;DHT22;68121;52.404;5.318;2023-04-01T04:59:26;10.00;77.80
78779;DHT22;68121;52.404;5.318;2023-04-01T05:01:52;10.00;77.90
78779;DHT22;68121;52.404;5.318;2023-04-01T05:04:18;10.00;77.90
78779;DHT22;68121;52.404;5.318;2023-04-01T05:06:45;10.00;77.90
78779;DHT22;68121;52.404;5.318;2023-04-01T05:09:11;10.00;77.90
78779;DHT22;68121;52.404;5.318;2023-04-01T05:11:37;10.00;78.00
78779;DHT22;68121;52.404;5.318;2023-04-01T05:14:03;10.00;78.00
78779;DHT22;68121;52.404;5.318;2023-04-01T05:16:29;10.00;78.00
78779;DHT22;68121;52.404;5.318;2023-04-01T05:18:57;10.00;78.00
78779;DHT22;68121;52.404;5.318;2023-04-01T05:21:23;10.00;78.10
78779;DHT22;68121;52.404;5.318;2023-04-01T05:23:49;10.00;78.00
78779;DHT22;68121;52.404;5.318;2023-04-01T05:26:15;10.00;78.00
78779;DHT22;68121;52.404;5.318;2023-04-01T05:28:41;10.00;78.00
78779;DHT22;68121;52.404;5.318;2023-04-01T05:31:08;10.00;78.10
78779;DHT22;68121;52.404;5.318;2023-04-01T05:33:34;10.00;78.00
78779;DHT22;68121;52.404;5.318;2023-04-01T05:36:11;10.00;78.10
78779;DHT22;68121;52.404;5.318;2023-04-01T05:38:38;10.00;78.10
78779;DHT22;68121;52.404;5.318;2023-04-01T05:41:05;10.00;78.10
78779;DHT22;68121;52.404;5.318;2023-04-01T05:43:31;10.00;78.20
78779;DHT22;68121;52.404;5.318;2023-04-01T05:45:57;10.00;78.20
78779;DHT22;68121;52.404;5.318;2023-04-01T05:48:23;10.00;78.20
78779;DHT22;68121;52.404;5.318;2023-04-01T05:50:49;10.00;78.20
78779;DHT22;68121;52.404;5.318;2023-04-01T05:53:15;10.00;78.20
78779;DHT22;68121;52.404;5.318;2023-04-01T05:55:41;10.00;78.20
78779;DHT22;68121;52.404;5.318;2023-04-01T05:58:07;10.00;78.20
78779;DHT22;68121;52.404;5.318;2023-04-01T06:00:34;10.00;78.20
78779;DHT22;68121;52.404;5.318;2023-04-01T06:03:00;10.00;78.20
78779;DHT22;68121;52.404;5.318;2023-04-01T06:05:28;9.90;78.30
78779;DHT22;68121;52.404;5.318;2023-04-01T06:07:59;9.90;78.20
78779;DHT22;68121;52.404;5.318;2023-04-01T06:16:26;9.90;78.30
78779;DHT22;68121;52.404;5.318;2023-04-01T06:33:16;10.00;78.10
78779;DHT22;68121;52.404;5.318;2023-04-01T06:55:30;10.00;78.20
78779;DHT22;68121;52.404;5.318;2023-04-01T06:58:00;10.00;78.20
78779;DHT22;68121;52.404;5.318;2023-04-01T07:00:40;10.00;78.20
78779;DHT22;68121;52.404;5.318;2023-04-01T07:05:42;10.00;78.30
78779;DHT22;68121;52.404;5.318;2023-04-01T07:08:28;10.00;78.30
78779;DHT22;68121;52.404;5.318;2023-04-01T07:11:03;10.00;78.30
78779;DHT22;68121;52.404;5.318;2023-04-01T07:13:45;10.10;78.30
78779;DHT22;68121;52.404;5.318;2023-04-01T07:16:41;10.00;78.30
78779;DHT22;68121;52.404;5.318;2023-04-01T07:19:21;10.00;78.30
78779;DHT22;68121;52.404;5.318;2023-04-01T07:21:51;10.10;78.30
78779;DHT22;68121;52.404;5.318;2023-04-01T07:24:27;10.10;78.30
78779;DHT22;68121;52.404;5.318;2023-04-01T07:26:57;10.10;78.30
78779;DHT22;68121;52.404;5.318;2023-04-01T07:29:23;10.00;78.30
78779;DHT22;68121;52.404;5.318;2023-04-01T07:40:08;10.00;78.40
78779;DHT22;68121;52.404;5.318;2023-04-01T07:45:42;10.10;78.50
78779;DHT22;68121;52.404;5.318;2023-04-01T07:53:34;10.10;78.40
78779;DHT22;68121;52.404;5.318;2023-04-01T07:56:24;10.20;78.40
78779;DHT22;68121;52.404;5.318;2023-04-01T08:10:32;10.30;78.30
78779;DHT22;68121;52.404;5.318;2023-04-01T08:21:27;10.40;78.40
78779;DHT22;68121;52.404;5.318;2023-04-01T08:23:58;10.40;78.20
78779;DHT22;68121;52.404;5.318;2023-04-01T08:26:37;10.40;78.20
78779;DHT22;68121;52.404;5.318;2023-04-01T08:29:12;10.40;78.30
78779;DHT22;68121;52.404;5.318;2023-04-01T08:31:59;10.50;78.40
78779;DHT22;68121;52.404;5.318;2023-04-01T08:34:32;10.50;78.30
78779;DHT22;68121;52.404;5.318;2023-04-01T08:37:12;10.60;78.40
78779;DHT22;68121;52.404;5.318;2023-04-01T08:39:46;10.70;78.30
78779;DHT22;68121;52.404;5.318;2023-04-01T08:48:28;10.80;78.20
78779;DHT22;68121;52.404;5.318;2023-04-01T08:51:12;10.80;78.20
78779;DHT22;68121;52.404;5.318;2023-04-01T08:56:18;11.10;78.30
78779;DHT22;68121;52.404;5.318;2023-04-01T09:21:41;11.20;77.70
78779;DHT22;68121;52.404;5.318;2023-04-01T09:26:58;11.20;77.70
78779;DHT22;68121;52.404;5.318;2023-04-01T09:32:42;11.30;77.80
78779;DHT22;68121;52.404;5.318;2023-04-01T09:40:57;11.40;77.60
78779;DHT22;68121;52.404;5.318;2023-04-01T09:49:11;11.30;77.60
78779;DHT22;68121;52.404;5.318;2023-04-01T09:52:24;11.30;77.70
78779;DHT22;68121;52.404;5.318;2023-04-01T09:55:12;11.30;77.60
78779;DHT22;68121;52.404;5.318;2023-04-01T10:04:17;11.10;77.60
78779;DHT22;68121;52.404;5.318;2023-04-01T10:10:20;11.10;77.50
78779;DHT22;68121;52.404;5.318;2023-04-01T10:21:04;11.20;77.50
78779;DHT22;68121;52.404;5.318;2023-04-01T10:56:49;11.90;77.20
78779;DHT22;68121;52.404;5.318;2023-04-01T11:24:49;11.30;77.30
78779;DHT22;68121;52.404;5.318;2023-04-01T11:35:55;11.10;77.60
78779;DHT22;68121;52.404;5.318;2023-04-01T11:38:51;11.10;77.60
78779;DHT22;68121;52.404;5.318;2023-04-01T11:41:43;11.00;77.60
78779;DHT22;68121;52.404;5.318;2023-04-01T11:44:22;11.00;77.70
78779;DHT22;68121;52.404;5.318;2023-04-01T11:49:51;11.10;77.70
78779;DHT22;68121;52.404;5.318;2023-04-01T11:52:48;11.10;77.80
78779;DHT22;68121;52.404;5.318;2023-04-01T12:07:14;11.70;77.40
78779;DHT22;68121;52.404;5.318;2023-04-01T12:15:50;11.70;77.20
78779;DHT22;68121;52.404;5.318;2023-04-01T12:32:50;11.40;77.40
78779;DHT22;68121;52.404;5.318;2023-04-01T12:35:20;11.40;77.50
78779;DHT22;68121;52.404;5.318;2023-04-01T12:37:53;11.30;77.50
78779;DHT22;68121;52.404;5.318;2023-04-01T12:40:30;11.30;77.50
78779;DHT22;68121;52.404;5.318;2023-04-01T13:00:23;10.90;77.80
78779;DHT22;68121;52.404;5.318;2023-04-01T13:13:55;10.80;78.00
78779;DHT22;68121;52.404;5.318;2023-04-01T13:16:29;10.80;78.00
78779;DHT22;68121;52.404;5.318;2023-04-01T13:19:36;10.80;77.90
78779;DHT22;68121;52.404;5.318;2023-04-01T13:27:43;11.10;77.70
78779;DHT22;68121;52.404;5.318;2023-04-01T13:30:26;11.10;77.60
78779;DHT22;68121;52.404;5.318;2023-04-01T13:32:59;11.10;77.70
78779;DHT22;68121;52.404;5.318;2023-04-01T13:41:05;11.30;77.60
78779;DHT22;68121;52.404;5.318;2023-04-01T13:43:42;11.30;77.60
78779;DHT22;68121;52.404;5.318;2023-04-01T13:52:52;11.40;77.30
78779;DHT22;68121;52.404;5.318;2023-04-01T13:58:19;11.40;77.40
78779;DHT22;68121;52.404;5.318;2023-04-01T14:14:31;11.30;77.20
78779;DHT22;68121;52.404;5.318;2023-04-01T14:17:15;11.30;77.20
78779;DHT22;68121;52.404;5.318;2023-04-01T14:20:04;11.30;77.20
78779;DHT22;68121;52.404;5.318;2023-04-01T14:33:26;11.10;77.20
78779;DHT22;68121;52.404;5.318;2023-04-01T14:39:15;11.30;77.00
78779;DHT22;68121;52.404;5.318;2023-04-01T14:44:50;11.10;77.00
78779;DHT22;68121;52.404;5.318;2023-04-01T14:50:12;11.00;77.00
78779;DHT22;68121;52.404;5.318;2023-04-01T14:52:44;11.00;77.10
78779;DHT22;68121;52.404;5.318;2023-04-01T14:55:46;11.00;77.00
78779;DHT22;68121;52.404;5.318;2023-04-01T14:58:16;10.90;77.00
78779;DHT22;68121;52.404;5.318;2023-04-01T15:01:13;10.80;77.10
78779;DHT22;68121;52.404;5.318;2023-04-01T15:12:49;10.80;77.20
78779;DHT22;68121;52.404;5.318;2023-04-01T15:18:09;10.80;77.20
78779;DHT22;68121;52.404;5.318;2023-04-01T15:26:31;10.80;77.10
78779;DHT22;68121;52.404;5.318;2023-04-01T15:34:36;10.80;77.10
78779;DHT22;68121;52.404;5.318;2023-04-01T15:43:00;10.70;77.10
78779;DHT22;68121;52.404;5.318;2023-04-01T15:45:58;10.60;77.20
78779;DHT22;68121;52.404;5.318;2023-04-01T15:52:03;10.60;77.20
78779;DHT22;68121;52.404;5.318;2023-04-01T15:57:51;10.50;77.00
78779;DHT22;68121;52.404;5.318;2023-04-01T16:00:57;10.40;77.00
78779;DHT22;68121;52.404;5.318;2023-04-01T16:09:06;10.30;77.10
78779;DHT22;68121;52.404;5.318;2023-04-01T16:22:21;10.20;77.00
78779;DHT22;68121;52.404;5.318;2023-04-01T16:27:46;10.20;76.90
78779;DHT22;68121;52.404;5.318;2023-04-01T16:30:38;10.20;76.80
78779;DHT22;68121;52.404;5.318;2023-04-01T16:36:13;10.10;76.60
78779;DHT22;68121;52.404;5.318;2023-04-01T16:38:59;10.10;76.60
78779;DHT22;68121;52.404;5.318;2023-04-01T16:41:34;10.00;76.50
78779;DHT22;68121;52.404;5.318;2023-04-01T16:44:24;10.00;76.50
78779;DHT22;68121;52.404;5.318;2023-04-01T16:47:14;10.00;76.40
78779;DHT22;68121;52.404;5.318;2023-04-01T16:49:50;10.00;76.40
78779;DHT22;68121;52.404;5.318;2023-04-01T16:52:34;9.80;76.50
78779;DHT22;68121;52.404;5.318;2023-04-01T16:55:21;9.80;76.50
78779;DHT22;68121;52.404;5.318;2023-04-01T16:57:51;9.70;76.50
78779;DHT22;68121;52.404;5.318;2023-04-01T17:03:20;9.70;76.50
78779;DHT22;68121;52.404;5.318;2023-04-01T17:05:55;9.70;76.50
78779;DHT22;68121;52.404;5.318;2023-04-01T17:08:33;9.70;76.50
78779;DHT22;68121;52.404;5.318;2023-04-01T17:16:35;9.70;76.20
78779;DHT22;68121;52.404;5.318;2023-04-01T17:30:26;9.50;76.20
78779;DHT22;68121;52.404;5.318;2023-04-01T17:40:44;9.50;76.10
78779;DHT22;68121;52.404;5.318;2023-04-01T17:43:26;9.50;76.10
78779;DHT22;68121;52.404;5.318;2023-04-01T17:45:57;9.50;76.10
78779;DHT22;68121;52.404;5.318;2023-04-01T17:48:42;9.40;76.10
78779;DHT22;68121;52.404;5.318;2023-04-01T17:56:38;9.40;76.10
78779;DHT22;68121;52.404;5.318;2023-04-01T17:59:20;9.40;76.00
78779;DHT22;68121;52.404;5.318;2023-04-01T18:16:38;9.00;76.10
78779;DHT22;68121;52.404;5.318;2023-04-01T18:24:40;9.00;75.90
78779;DHT22;68121;52.404;5.318;2023-04-01T18:27:22;8.90;75.90
78779;DHT22;68121;52.404;5.318;2023-04-01T18:29:59;8.90;75.90
78779;DHT22;68121;52.404;5.318;2023-04-01T18:32:54;8.90;75.90
78779;DHT22;68121;52.404;5.318;2023-04-01T18:35:54;8.90;75.90
78779;DHT22;68121;52.404;5.318;2023-04-01T18:38:30;8.90;75.80
78779;DHT22;68121;52.404;5.318;2023-04-01T18:41:13;8.80;75.80
78779;DHT22;68121;52.404;5.318;2023-04-01T18:44:04;8.90;75.80
78779;DHT22;68121;52.404;5.318;2023-04-01T18:46:59;8.90;75.80
78779;DHT22;68121;52.404;5.318;2023-04-01T18:58:25;8.90;75.70
78779;DHT22;68121;52.404;5.318;2023-04-01T19:00:41;8.80;75.70
78779;DHT22;68121;52.404;5.318;2023-04-01T19:03:12;8.80;75.60
78779;DHT22;68121;52.404;5.318;2023-04-01T19:05:46;8.80;75.60
78779;DHT22;68121;52.404;5.318;2023-04-01T19:08:32;8.70;75.50
78779;DHT22;68121;52.404;5.318;2023-04-01T19:16:21;8.60;75.50
78779;DHT22;68121;52.404;5.318;2023-04-01T19:44:02;8.40;75.20
78779;DHT22;68121;52.404;5.318;2023-04-01T19:46:45;8.30;75.20
78779;DHT22;68121;52.404;5.318;2023-04-01T19:50:17;8.30;75.20
78779;DHT22;68121;52.404;5.318;2023-04-01T19:52:20;8.20;75.20
78779;DHT22;68121;52.404;5.318;2023-04-01T19:55:01;8.20;75.20
78779;DHT22;68121;52.404;5.318;2023-04-01T19:57:55;8.20;75.20
78779;DHT22;68121;52.404;5.318;2023-04-01T20:14:13;8.10;74.90
78779;DHT22;68121;52.404;5.318;2023-04-01T20:19:58;8.10;74.80
78779;DHT22;68121;52.404;5.318;2023-04-01T20:30:34;8.00;74.70
78779;DHT22;68121;52.404;5.318;2023-04-01T20:53:12;7.80;74.30
78779;DHT22;68121;52.404;5.318;2023-04-01T20:58:19;7.70;74.30
78779;DHT22;68121;52.404;5.318;2023-04-01T21:03:55;7.60;74.30
78779;DHT22;68121;52.404;5.318;2023-04-01T21:15:10;7.60;74.20
78779;DHT22;68121;52.404;5.318;2023-04-01T21:20:28;7.50;74.30
78779;DHT22;68121;52.404;5.318;2023-04-01T21:23:15;7.50;74.30
78779;DHT22;68121;52.404;5.318;2023-04-01T21:34:47;7.50;74.30
78779;DHT22;68121;52.404;5.318;2023-04-01T21:37:42;7.50;74.30
78779;DHT22;68121;52.404;5.318;2023-04-01T21:40:36;7.50;74.30
78779;DHT22;68121;52.404;5.318;2023-04-01T21:43:40;7.50;74.20
78779;DHT22;68121;52.404;5.318;2023-04-01T21:52:10;7.50;74.30
78779;DHT22;68121;52.404;5.318;2023-04-01T21:58:08;7.50;74.20
78779;DHT22;68121;52.404;5.318;2023-04-01T22:03:48;7.40;74.10
78779;DHT22;68121;52.404;5.318;2023-04-01T22:06:32;7.30;74.10
78779;DHT22;68121;52.404;5.318;2023-04-01T22:11:56;7.20;74.10
78779;DHT22;68121;52.404;5.318;2023-04-01T22:14:38;7.20;74.10
78779;DHT22;68121;52.404;5.318;2023-04-01T22:17:28;7.20;74.20
78779;DHT22;68121;52.404;5.318;2023-04-01T22:23:26;7.20;74.10
78779;DHT22;68121;52.404;5.318;2023-04-01T22:26:17;7.20;74.10
78779;DHT22;68121;52.404;5.318;2023-04-01T22:29:01;7.20;74.20
78779;DHT22;68121;52.404;5.318;2023-04-01T22:31:55;7.20;74.10
78779;DHT22;68121;52.404;5.318;2023-04-01T22:42:47;7.20;74.10
78779;DHT22;68121;52.404;5.318;2023-04-01T22:50:57;7.10;74.10
78779;DHT22;68121;52.404;5.318;2023-04-01T22:54:03;7.10;74.00
78779;DHT22;68121;52.404;5.318;2023-04-01T22:56:52;7.00;73.90
78779;DHT22;68121;52.404;5.318;2023-04-01T22:59:37;7.00;73.80
78779;DHT22;68121;52.404;5.318;2023-04-01T23:02:11;7.00;73.90
78779;DHT22;68121;52.404;5.318;2023-04-01T23:04:41;6.90;73.80
78779;DHT22;68121;52.404;5.318;2023-04-01T23:07:48;6.90;73.80
78779;DHT22;68121;52.404;5.318;2023-04-01T23:12:57;6.80;73.80
78779;DHT22;68121;52.404;5.318;2023-04-01T23:15:24;6.80;73.80
78779;DHT22;68121;52.404;5.318;2023-04-01T23:18:13;6.80;73.90
78779;DHT22;68121;52.404;5.318;2023-04-01T23:20:56;6.80;73.90
78779;DHT22;68121;52.404;5.318;2023-04-01T23:26:31;6.80;73.90
78779;DHT22;68121;52.404;5.318;2023-04-01T23:28:58;6.70;73.80
78779;DHT22;68121;52.404;5.318;2023-04-01T23:31:36;6.70;73.80
78779;DHT22;68121;52.404;5.318;2023-04-01T23:39:31;6.70;73.80
78779;DHT22;68121;52.404;5.318;2023-04-01T23:42:04;6.70;73.80
78779;DHT22;68121;52.404;5.318;2023-04-01T23:44:31;6.60;73.80
78779;DHT22;68121;52.404;5.318;2023-04-01T23:46:59;6.60;73.70
78779;DHT22;68121;52.404;5.318;2023-04-01T23:49:40;6.60;73.70
78779;DHT22;68121;52.404;5.318;2023-04-01T23:52:27;6.60;73.70
78779;DHT22;68121;52.404;5.318;2023-04-01T23:55:13;6.60;73.60
78779;DHT22;68121;52.404;5.318;2023-04-01T23:57:39;6.50;73.60
